Terminal Aerodrome Forecast
Issued by NWS Sterling, VA

Current Version | Previous Version | Graphics & Text | Print | Product List | Glossary On
Versions: 1 2 3 4 5 6 7 8 9 10 11 12 13 14 15 16 17 18 19 20 21 22 23
000
FTUS41 KLWX 031123
TAFIAD
TAF
KIAD 031123Z 0312/0418 30009KT P6SM SCT045
     FM031400 31014G24KT P6SM SCT045
     FM032300 30008KT P6SM SCT045
     FM040000 30007KT P6SM SCT250=

USA.gov is the U.S. government's official web portal to all federal, state and local government web resources and services.